Providence, RI

9:50 AM EDT on September 01, 2014 (GMT -0400)
Taunton Municipal | Change Station
CLOSE
Current Station
Airport
Location: Taunton,
Elevation: 43 ft
Nearby Weather Stations

Elev 43 ft 41.88 °N, 71.02 °W | Updated 13 minutes ago

Scattered Clouds
Scattered Clouds
78 °F
Feels Like 78 °F
N
5
Wind Variable Wind from SW

Today
High -- | Low -- °F
--% Chance of Precip.
Yesterday
High -- | Low -- °F
Precip. -- in
6:11 AM 7:19 PM
Waxing Crescent, 41% visible
Pressure 29.98 in
Visibility 10.0 miles
Clouds Scattered Clouds 800 ft
Scattered Clouds 1200 ft
Dew Point 71 °F
Humidity 79%
Rainfall 0.00 in
Snow Depth Not available.
UV 4 out of 12
Pollen 4.30 out of 12
Ozone Good
PM2.5 Good
Flu Activity Not available.
SPECI KTAN 011337Z AUTO 22004KT 10SM SCT008 SCT012 26/22 A2998 RMK AO2 T02560217

More Conditions Fewer Conditions

Pressure 29.98 in
Visibility 10.0 miles
Clouds Scattered Clouds 800 ft
Scattered Clouds 1200 ft
Dew Point 71 °F
Humidity 79%
Rainfall 0.00 in
Snow Depth Not available.
UV 4 out of 12
Pollen 4.30 out of 12
Ozone Good
PM2.5 Good
Flu Activity Not available.
SPECI KTAN 011337Z AUTO 22004KT 10SM SCT008 SCT012 26/22 A2998 RMK AO2 T02560217

More Conditions Fewer Conditions

10-Day Weather Forecast

Almanac

Astronomy

Sep. 01, 2014 Rise Set
Actual Time 6:11 AM EDT 7:19 PM EDT
Civil Twilight 5:42 AM EDT 7:47 PM EDT
Nautical Twilight 5:08 AM EDT 8:21 PM EDT
Astronomical Twilight 4:32 AM EDT 8:57 PM EDT
Moon 1:00 PM EDT 11:11 PM EDT
Length of Visible Light 14h 04m
Length of Day
13h 07m
Tomorrow will be 2m 42s shorter.
Waxing Crescent, 41% of the Moon is Illuminated
Today
Waxing Crescent
Sep 2
First Quarter
Sep 8
Full
Sep 15
Last Quarter
Sep 24
New

Today's Extremes

State Highs State Lows

Community

WunderPhotos

Upload Photos

1,749,222 photos uploaded!

Nearby

Air Quality

  Air Quality AQ Index Pollutant
Yesterday Good
PM2.5
Yesterday Good
OZONE
Current Good
PM2.5
Current Good
OZONE
Monday Good
OZONE
Monday Good
PM2.5
Tuesday Good
OZONE
Tuesday Good
PM2.5
Wednesday Good
OZONE
Wednesday Good
PM2.5
Thursday Good
OZONE
Thursday Good
PM2.5

Snow Depth

Station Depth Elevation
No new snow has been reported.

Earthquake Activity

City Distance Mag. Time & Date
No recent earthquake activity has been reported nearby.
Minimum magnitude displayed is 2.5.

Coastal Water Temperatures

Place Temperature
Newport, RI 69.1 °F
Quonset Point, RI 71.1 °F
Conimicut Light, RI 73.0 °F

Nearby Weather Stations